Jackson, MI

12:20 AM EST on November 24, 2014 (GMT -0500)
Hillsdale Municipal | Change Station
CLOSE
Current Station
Airport
Location: Hillsdale,
Elevation: 1181 ft
Nearby Weather Stations

Elev 1181 ft 41.92 °N, 84.59 °W | Updated 6 minutes ago

Rain
Rain
52 °F
Feels Like 52 °F
N
13
Wind Variable Wind from South
Gusts 20 mph

Today
High -- | Low -- °F
--% Chance of Precip.
Yesterday
High -- | Low -- °F
Precip. -- in
7:38 AM 5:09 PM
Waxing Crescent, 4% visible
Pressure 29.15 in
Visibility 7.0 miles
Clouds Mostly Cloudy 700 ft
Overcast 1200 ft
Dew Point 52 °F
Humidity 100%
Rainfall 0.00 in
Snow Depth Not available.
UV 0 out of 12
Pollen .10 out of 12
Air Quality Not available.
Flu Activity Not available.
METAR KJYM 240514Z AUTO 17011G17KT 7SM RA BKN007 OVC012 11/11 A2915 RMK AO2 T01140114

More Conditions Fewer Conditions

Pressure 29.15 in
Visibility 7.0 miles
Clouds Mostly Cloudy 700 ft
Overcast 1200 ft
Dew Point 52 °F
Humidity 100%
Rainfall 0.00 in
Snow Depth Not available.
UV 0 out of 12
Pollen .10 out of 12
Air Quality Not available.
Flu Activity Not available.
METAR KJYM 240514Z AUTO 17011G17KT 7SM RA BKN007 OVC012 11/11 A2915 RMK AO2 T01140114

More Conditions Fewer Conditions

10-Day Weather Forecast

Almanac

Astronomy

Nov. 24, 2014 Rise Set
Actual Time
Civil Twilight
Nautical Twilight
Astronomical Twilight
Moon
Length of Visible Light
Length of Day
Tomorrow will be .
, % of the Moon is Illuminated

Today's Extremes

State Highs State Lows

Community

WunderPhotos

Upload Photos

1,773,269 photos uploaded!

WunderBlogs® & News

Nearby

Air Quality

  Air Quality AQ Index Pollutant
Not available.

Snow Depth

Station Depth Elevation

Earthquake Activity

City Distance Mag. Time & Date
Minimum magnitude displayed is 2.5.

Coastal Water Temperatures

Place Temperature

Nearby Weather Stations